sensor_id;sensor_type;location;lat;lon;timestamp;P1;P2;P0
55754;PMS5003;41674;52.290;-1.474;2023-06-04T00:02:23;8;6;
55754;PMS5003;41674;52.290;-1.474;2023-06-04T00:04:53;6;6;
55754;PMS5003;41674;52.290;-1.474;2023-06-04T00:07:23;8;6;
55754;PMS5003;41674;52.290;-1.474;2023-06-04T00:09:52;6;5;
55754;PMS5003;41674;52.290;-1.474;2023-06-04T00:12:22;11;6;
55754;PMS5003;41674;52.290;-1.474;2023-06-04T00:14:51;10;8;
55754;PMS5003;41674;52.290;-1.474;2023-06-04T00:19:51;5;5;
55754;PMS5003;41674;52.290;-1.474;2023-06-04T00:22:20;8;6;
55754;PMS5003;41674;52.290;-1.474;2023-06-04T00:24:50;6;6;
55754;PMS5003;41674;52.290;-1.474;2023-06-04T00:27:19;7;6;
55754;PMS5003;41674;52.290;-1.474;2023-06-04T00:29:49;9;7;
55754;PMS5003;41674;52.290;-1.474;2023-06-04T00:32:19;11;7;
55754;PMS5003;41674;52.290;-1.474;2023-06-04T00:34:50;6;5;
55754;PMS5003;41674;52.290;-1.474;2023-06-04T00:37:18;7;6;
55754;PMS5003;41674;52.290;-1.474;2023-06-04T00:39:47;6;6;
55754;PMS5003;41674;52.290;-1.474;2023-06-04T00:42:17;8;6;
55754;PMS5003;41674;52.290;-1.474;2023-06-04T00:44:46;5;5;
55754;PMS5003;41674;52.290;-1.474;2023-06-04T00:47:16;9;7;
55754;PMS5003;41674;52.290;-1.474;2023-06-04T00:49:46;9;7;
55754;PMS5003;41674;52.290;-1.474;2023-06-04T00:52:15;7;7;
55754;PMS5003;41674;52.290;-1.474;2023-06-04T00:54:45;3;3;
55754;PMS5003;41674;52.290;-1.474;2023-06-04T00:57:15;5;5;
55754;PMS5003;41674;52.290;-1.474;2023-06-04T00:59:44;5;5;
55754;PMS5003;41674;52.290;-1.474;2023-06-04T01:02:14;6;6;
55754;PMS5003;41674;52.290;-1.474;2023-06-04T01:04:44;5;4;
55754;PMS5003;41674;52.290;-1.474;2023-06-04T01:07:13;6;6;
55754;PMS5003;41674;52.290;-1.474;2023-06-04T01:09:44;7;7;
55754;PMS5003;41674;52.290;-1.474;2023-06-04T01:12:17;5;5;
55754;PMS5003;41674;52.290;-1.474;2023-06-04T01:14:42;8;6;
55754;PMS5003;41674;52.290;-1.474;2023-06-04T01:17:14;6;6;
55754;PMS5003;41674;52.290;-1.474;2023-06-04T01:19:47;8;7;
55754;PMS5003;41674;52.290;-1.474;2023-06-04T01:22:13;10;8;
55754;PMS5003;41674;52.290;-1.474;2023-06-04T01:24:40;9;7;
55754;PMS5003;41674;52.290;-1.474;2023-06-04T01:27:10;11;9;
55754;PMS5003;41674;52.290;-1.474;2023-06-04T01:29:39;8;8;
55754;PMS5003;41674;52.290;-1.474;2023-06-04T01:32:09;5;5;
55754;PMS5003;41674;52.290;-1.474;2023-06-04T01:34:43;8;6;
55754;PMS5003;41674;52.290;-1.474;2023-06-04T01:37:08;5;5;
55754;PMS5003;41674;52.290;-1.474;2023-06-04T01:39:38;5;5;
55754;PMS5003;41674;52.290;-1.474;2023-06-04T01:42:08;8;5;
55754;PMS5003;41674;52.290;-1.474;2023-06-04T01:44:37;7;5;
55754;PMS5003;41674;52.290;-1.474;2023-06-04T01:47:07;7;6;
55754;PMS5003;41674;52.290;-1.474;2023-06-04T01:49:37;7;7;
55754;PMS5003;41674;52.290;-1.474;2023-06-04T01:52:06;8;7;
55754;PMS5003;41674;52.290;-1.474;2023-06-04T01:54:36;7;7;
55754;PMS5003;41674;52.290;-1.474;2023-06-04T01:57:06;5;5;
55754;PMS5003;41674;52.290;-1.474;2023-06-04T01:59:35;5;5;
55754;PMS5003;41674;52.290;-1.474;2023-06-04T02:02:05;7;7;
55754;PMS5003;41674;52.290;-1.474;2023-06-04T02:04:34;6;6;
55754;PMS5003;41674;52.290;-1.474;2023-06-04T02:07:04;7;7;
55754;PMS5003;41674;52.290;-1.474;2023-06-04T02:09:33;8;8;
55754;PMS5003;41674;52.290;-1.474;2023-06-04T02:12:03;6;6;
55754;PMS5003;41674;52.290;-1.474;2023-06-04T02:14:32;8;6;
55754;PMS5003;41674;52.290;-1.474;2023-06-04T02:17:02;7;6;
55754;PMS5003;41674;52.290;-1.474;2023-06-04T02:19:32;6;6;
55754;PMS5003;41674;52.290;-1.474;2023-06-04T02:22:06;8;8;
55754;PMS5003;41674;52.290;-1.474;2023-06-04T02:24:31;7;6;
55754;PMS5003;41674;52.290;-1.474;2023-06-04T02:27:01;10;7;
55754;PMS5003;41674;52.290;-1.474;2023-06-04T02:29:30;6;6;
55754;PMS5003;41674;52.290;-1.474;2023-06-04T02:32:00;8;8;
55754;PMS5003;41674;52.290;-1.474;2023-06-04T02:34:29;9;7;
55754;PMS5003;41674;52.290;-1.474;2023-06-04T02:36:58;10;10;
55754;PMS5003;41674;52.290;-1.474;2023-06-04T02:39:28;16;9;
55754;PMS5003;41674;52.290;-1.474;2023-06-04T02:41:57;9;7;
55754;PMS5003;41674;52.290;-1.474;2023-06-04T02:44:27;8;7;
55754;PMS5003;41674;52.290;-1.474;2023-06-04T02:46:56;12;10;
55754;PMS5003;41674;52.290;-1.474;2023-06-04T02:49:26;8;7;
55754;PMS5003;41674;52.290;-1.474;2023-06-04T02:51:56;9;9;
55754;PMS5003;41674;52.290;-1.474;2023-06-04T02:54:25;8;7;
55754;PMS5003;41674;52.290;-1.474;2023-06-04T02:56:55;7;6;
55754;PMS5003;41674;52.290;-1.474;2023-06-04T02:59:24;8;7;
55754;PMS5003;41674;52.290;-1.474;2023-06-04T03:01:54;9;9;
55754;PMS5003;41674;52.290;-1.474;2023-06-04T03:04:23;9;9;
55754;PMS5003;41674;52.290;-1.474;2023-06-04T03:06:53;10;9;
55754;PMS5003;41674;52.290;-1.474;2023-06-04T03:09:23;10;8;
55754;PMS5003;41674;52.290;-1.474;2023-06-04T03:11:52;11;9;
55754;PMS5003;41674;52.290;-1.474;2023-06-04T03:14:21;9;8;
55754;PMS5003;41674;52.290;-1.474;2023-06-04T03:16:52;9;8;
55754;PMS5003;41674;52.290;-1.474;2023-06-04T03:19:20;11;11;
55754;PMS5003;41674;52.290;-1.474;2023-06-04T03:21:50;12;11;
55754;PMS5003;41674;52.290;-1.474;2023-06-04T03:24:19;13;13;
55754;PMS5003;41674;52.290;-1.474;2023-06-04T03:26:49;14;12;
55754;PMS5003;41674;52.290;-1.474;2023-06-04T03:29:19;16;13;
55754;PMS5003;41674;52.290;-1.474;2023-06-04T03:31:48;14;13;
55754;PMS5003;41674;52.290;-1.474;2023-06-04T03:34:18;12;11;
55754;PMS5003;41674;52.290;-1.474;2023-06-04T03:36:47;11;10;
55754;PMS5003;41674;52.290;-1.474;2023-06-04T03:39:17;12;11;
55754;PMS5003;41674;52.290;-1.474;2023-06-04T03:41:47;10;10;
55754;PMS5003;41674;52.290;-1.474;2023-06-04T03:44:16;10;10;
55754;PMS5003;41674;52.290;-1.474;2023-06-04T03:46:45;12;12;
55754;PMS5003;41674;52.290;-1.474;2023-06-04T03:49:15;13;12;
55754;PMS5003;41674;52.290;-1.474;2023-06-04T03:51:45;14;10;
55754;PMS5003;41674;52.290;-1.474;2023-06-04T03:54:14;14;8;
55754;PMS5003;41674;52.290;-1.474;2023-06-04T03:56:44;12;11;
55754;PMS5003;41674;52.290;-1.474;2023-06-04T03:59:13;11;9;
55754;PMS5003;41674;52.290;-1.474;2023-06-04T04:01:42;13;12;
55754;PMS5003;41674;52.290;-1.474;2023-06-04T04:04:12;10;9;
55754;PMS5003;41674;52.290;-1.474;2023-06-04T04:06:42;16;11;
55754;PMS5003;41674;52.290;-1.474;2023-06-04T04:09:11;12;12;
55754;PMS5003;41674;52.290;-1.474;2023-06-04T04:11:40;10;9;
55754;PMS5003;41674;52.290;-1.474;2023-06-04T04:14:10;14;13;
55754;PMS5003;41674;52.290;-1.474;2023-06-04T04:16:39;11;11;
55754;PMS5003;41674;52.290;-1.474;2023-06-04T04:19:09;11;11;
55754;PMS5003;41674;52.290;-1.474;2023-06-04T04:21:38;13;13;
55754;PMS5003;41674;52.290;-1.474;2023-06-04T04:24:08;13;12;
55754;PMS5003;41674;52.290;-1.474;2023-06-04T04:26:38;12;12;
55754;PMS5003;41674;52.290;-1.474;2023-06-04T04:29:07;14;11;
55754;PMS5003;41674;52.290;-1.474;2023-06-04T04:31:37;13;10;
55754;PMS5003;41674;52.290;-1.474;2023-06-04T04:34:06;22;16;
55754;PMS5003;41674;52.290;-1.474;2023-06-04T04:36:36;12;12;
55754;PMS5003;41674;52.290;-1.474;2023-06-04T04:39:05;12;11;
55754;PMS5003;41674;52.290;-1.474;2023-06-04T04:41:36;12;10;
55754;PMS5003;41674;52.290;-1.474;2023-06-04T04:44:05;11;10;
55754;PMS5003;41674;52.290;-1.474;2023-06-04T04:46:34;11;10;
55754;PMS5003;41674;52.290;-1.474;2023-06-04T04:49:04;10;10;
55754;PMS5003;41674;52.290;-1.474;2023-06-04T04:51:33;11;10;
55754;PMS5003;41674;52.290;-1.474;2023-06-04T04:54:02;11;8;
55754;PMS5003;41674;52.290;-1.474;2023-06-04T04:56:32;10;8;
55754;PMS5003;41674;52.290;-1.474;2023-06-04T04:59:01;13;11;
55754;PMS5003;41674;52.290;-1.474;2023-06-04T05:01:31;10;9;
55754;PMS5003;41674;52.290;-1.474;2023-06-04T05:04:01;13;11;
55754;PMS5003;41674;52.290;-1.474;2023-06-04T05:06:30;9;9;
55754;PMS5003;41674;52.290;-1.474;2023-06-04T05:09:00;11;10;
55754;PMS5003;41674;52.290;-1.474;2023-06-04T05:11:29;11;8;
55754;PMS5003;41674;52.290;-1.474;2023-06-04T05:13:59;13;10;
55754;PMS5003;41674;52.290;-1.474;2023-06-04T05:16:29;8;8;
55754;PMS5003;41674;52.290;-1.474;2023-06-04T05:18:58;14;13;
55754;PMS5003;41674;52.290;-1.474;2023-06-04T05:21:28;8;7;
55754;PMS5003;41674;52.290;-1.474;2023-06-04T05:23:58;11;10;
55754;PMS5003;41674;52.290;-1.474;2023-06-04T05:26:27;9;7;
55754;PMS5003;41674;52.290;-1.474;2023-06-04T05:28:56;11;10;
55754;PMS5003;41674;52.290;-1.474;2023-06-04T05:31:26;12;11;
55754;PMS5003;41674;52.290;-1.474;2023-06-04T05:33:55;10;10;
55754;PMS5003;41674;52.290;-1.474;2023-06-04T05:36:25;11;11;
55754;PMS5003;41674;52.290;-1.474;2023-06-04T05:38:55;13;9;
55754;PMS5003;41674;52.290;-1.474;2023-06-04T05:41:24;10;9;
55754;PMS5003;41674;52.290;-1.474;2023-06-04T05:43:53;15;11;
55754;PMS5003;41674;52.290;-1.474;2023-06-04T05:46:23;14;10;
55754;PMS5003;41674;52.290;-1.474;2023-06-04T05:48:53;14;12;
55754;PMS5003;41674;52.290;-1.474;2023-06-04T05:51:22;11;11;
55754;PMS5003;41674;52.290;-1.474;2023-06-04T05:53:52;14;11;
55754;PMS5003;41674;52.290;-1.474;2023-06-04T05:56:21;16;15;
55754;PMS5003;41674;52.290;-1.474;2023-06-04T05:58:52;10;10;
55754;PMS5003;41674;52.290;-1.474;2023-06-04T06:01:20;15;14;
55754;PMS5003;41674;52.290;-1.474;2023-06-04T06:03:49;13;12;
55754;PMS5003;41674;52.290;-1.474;2023-06-04T06:06:18;14;13;
55754;PMS5003;41674;52.290;-1.474;2023-06-04T06:08:48;14;11;
55754;PMS5003;41674;52.290;-1.474;2023-06-04T06:11:17;10;10;
55754;PMS5003;41674;52.290;-1.474;2023-06-04T06:13:47;11;11;
55754;PMS5003;41674;52.290;-1.474;2023-06-04T06:16:16;17;13;
55754;PMS5003;41674;52.290;-1.474;2023-06-04T06:18:46;12;11;
55754;PMS5003;41674;52.290;-1.474;2023-06-04T06:21:15;13;13;
55754;PMS5003;41674;52.290;-1.474;2023-06-04T06:23:45;18;14;
55754;PMS5003;41674;52.290;-1.474;2023-06-04T06:26:14;13;10;
55754;PMS5003;41674;52.290;-1.474;2023-06-04T06:28:44;15;12;
55754;PMS5003;41674;52.290;-1.474;2023-06-04T06:31:14;14;13;
55754;PMS5003;41674;52.290;-1.474;2023-06-04T06:33:43;17;15;
55754;PMS5003;41674;52.290;-1.474;2023-06-04T06:36:12;15;12;
55754;PMS5003;41674;52.290;-1.474;2023-06-04T06:38:42;17;15;
55754;PMS5003;41674;52.290;-1.474;2023-06-04T06:41:11;17;15;
55754;PMS5003;41674;52.290;-1.474;2023-06-04T06:43:41;13;12;
55754;PMS5003;41674;52.290;-1.474;2023-06-04T06:46:11;14;11;
55754;PMS5003;41674;52.290;-1.474;2023-06-04T06:48:40;14;11;
55754;PMS5003;41674;52.290;-1.474;2023-06-04T06:51:10;17;16;
55754;PMS5003;41674;52.290;-1.474;2023-06-04T06:53:39;10;10;
55754;PMS5003;41674;52.290;-1.474;2023-06-04T06:56:08;15;13;
55754;PMS5003;41674;52.290;-1.474;2023-06-04T06:58:38;14;13;
55754;PMS5003;41674;52.290;-1.474;2023-06-04T07:01:08;16;13;
55754;PMS5003;41674;52.290;-1.474;2023-06-04T07:03:37;19;11;
55754;PMS5003;41674;52.290;-1.474;2023-06-04T07:06:07;14;12;
55754;PMS5003;41674;52.290;-1.474;2023-06-04T07:08:37;11;10;
55754;PMS5003;41674;52.290;-1.474;2023-06-04T07:11:06;12;11;
55754;PMS5003;41674;52.290;-1.474;2023-06-04T07:13:36;19;13;
55754;PMS5003;41674;52.290;-1.474;2023-06-04T07:16:05;17;14;
55754;PMS5003;41674;52.290;-1.474;2023-06-04T07:18:34;13;12;
55754;PMS5003;41674;52.290;-1.474;2023-06-04T07:21:04;13;10;
55754;PMS5003;41674;52.290;-1.474;2023-06-04T07:23:34;14;12;
55754;PMS5003;41674;52.290;-1.474;2023-06-04T07:26:03;10;10;
55754;PMS5003;41674;52.290;-1.474;2023-06-04T07:28:32;9;8;
55754;PMS5003;41674;52.290;-1.474;2023-06-04T07:31:02;9;8;
55754;PMS5003;41674;52.290;-1.474;2023-06-04T07:33:32;10;10;
55754;PMS5003;41674;52.290;-1.474;2023-06-04T07:36:01;13;8;
55754;PMS5003;41674;52.290;-1.474;2023-06-04T07:38:31;10;10;
55754;PMS5003;41674;52.290;-1.474;2023-06-04T07:41:01;9;9;
55754;PMS5003;41674;52.290;-1.474;2023-06-04T07:43:30;8;7;
55754;PMS5003;41674;52.290;-1.474;2023-06-04T07:46:00;7;7;
55754;PMS5003;41674;52.290;-1.474;2023-06-04T07:50:59;8;7;
55754;PMS5003;41674;52.290;-1.474;2023-06-04T07:53:28;8;7;
55754;PMS5003;41674;52.290;-1.474;2023-06-04T07:55:58;7;7;
55754;PMS5003;41674;52.290;-1.474;2023-06-04T07:58:29;10;8;
55754;PMS5003;41674;52.290;-1.474;2023-06-04T08:00:57;8;6;
55754;PMS5003;41674;52.290;-1.474;2023-06-04T08:03:26;8;8;
55754;PMS5003;41674;52.290;-1.474;2023-06-04T08:05:56;7;7;
55754;PMS5003;41674;52.290;-1.474;2023-06-04T08:08:25;8;7;
55754;PMS5003;41674;52.290;-1.474;2023-06-04T08:10:55;8;8;
55754;PMS5003;41674;52.290;-1.474;2023-06-04T08:13:24;9;6;
55754;PMS5003;41674;52.290;-1.474;2023-06-04T08:15:54;8;8;
55754;PMS5003;41674;52.290;-1.474;2023-06-04T08:18:23;7;6;
55754;PMS5003;41674;52.290;-1.474;2023-06-04T08:20:53;9;9;
55754;PMS5003;41674;52.290;-1.474;2023-06-04T08:23:22;10;8;
55754;PMS5003;41674;52.290;-1.474;2023-06-04T08:25:51;9;9;
55754;PMS5003;41674;52.290;-1.474;2023-06-04T08:28:21;7;6;
55754;PMS5003;41674;52.290;-1.474;2023-06-04T08:30:51;7;7;
55754;PMS5003;41674;52.290;-1.474;2023-06-04T08:33:20;7;7;
55754;PMS5003;41674;52.290;-1.474;2023-06-04T08:35:50;7;7;
55754;PMS5003;41674;52.290;-1.474;2023-06-04T08:38:20;9;9;
55754;PMS5003;41674;52.290;-1.474;2023-06-04T08:40:50;8;7;
55754;PMS5003;41674;52.290;-1.474;2023-06-04T08:43:19;5;5;
55754;PMS5003;41674;52.290;-1.474;2023-06-04T08:45:49;8;7;
55754;PMS5003;41674;52.290;-1.474;2023-06-04T08:48:18;7;7;
55754;PMS5003;41674;52.290;-1.474;2023-06-04T08:50:47;11;9;
55754;PMS5003;41674;52.290;-1.474;2023-06-04T08:53:17;9;8;
55754;PMS5003;41674;52.290;-1.474;2023-06-04T08:55:46;7;6;
55754;PMS5003;41674;52.290;-1.474;2023-06-04T08:58:16;9;9;
55754;PMS5003;41674;52.290;-1.474;2023-06-04T09:00:45;9;8;
55754;PMS5003;41674;52.290;-1.474;2023-06-04T09:03:15;5;5;
55754;PMS5003;41674;52.290;-1.474;2023-06-04T09:05:45;7;7;
55754;PMS5003;41674;52.290;-1.474;2023-06-04T09:08:14;9;9;
55754;PMS5003;41674;52.290;-1.474;2023-06-04T09:10:44;5;5;
55754;PMS5003;41674;52.290;-1.474;2023-06-04T09:13:13;7;7;
55754;PMS5003;41674;52.290;-1.474;2023-06-04T09:15:43;7;6;
55754;PMS5003;41674;52.290;-1.474;2023-06-04T09:18:13;10;8;
55754;PMS5003;41674;52.290;-1.474;2023-06-04T09:20:42;7;6;
55754;PMS5003;41674;52.290;-1.474;2023-06-04T09:23:12;8;8;
55754;PMS5003;41674;52.290;-1.474;2023-06-04T09:25:42;7;7;
55754;PMS5003;41674;52.290;-1.474;2023-06-04T09:28:11;6;6;
55754;PMS5003;41674;52.290;-1.474;2023-06-04T09:33:10;5;5;
55754;PMS5003;41674;52.290;-1.474;2023-06-04T09:35:39;5;5;
55754;PMS5003;41674;52.290;-1.474;2023-06-04T09:38:14;8;8;
55754;PMS5003;41674;52.290;-1.474;2023-06-04T09:40:39;5;5;
55754;PMS5003;41674;52.290;-1.474;2023-06-04T09:43:08;5;5;
55754;PMS5003;41674;52.290;-1.474;2023-06-04T09:45:38;7;6;
55754;PMS5003;41674;52.290;-1.474;2023-06-04T09:48:07;9;5;
55754;PMS5003;41674;52.290;-1.474;2023-06-04T09:50:37;11;8;
55754;PMS5003;41674;52.290;-1.474;2023-06-04T09:53:13;7;7;
55754;PMS5003;41674;52.290;-1.474;2023-06-04T09:55:36;6;6;
55754;PMS5003;41674;52.290;-1.474;2023-06-04T09:58:06;5;5;
55754;PMS5003;41674;52.290;-1.474;2023-06-04T10:00:35;6;5;
55754;PMS5003;41674;52.290;-1.474;2023-06-04T10:03:05;8;6;
55754;PMS5003;41674;52.290;-1.474;2023-06-04T10:05:34;4;4;
55754;PMS5003;41674;52.290;-1.474;2023-06-04T10:08:04;7;7;
55754;PMS5003;41674;52.290;-1.474;2023-06-04T10:10:34;6;5;
55754;PMS5003;41674;52.290;-1.474;2023-06-04T10:13:04;7;7;
55754;PMS5003;41674;52.290;-1.474;2023-06-04T10:15:32;7;7;
55754;PMS5003;41674;52.290;-1.474;2023-06-04T10:18:02;7;6;
55754;PMS5003;41674;52.290;-1.474;2023-06-04T10:20:31;5;5;
55754;PMS5003;41674;52.290;-1.474;2023-06-04T10:23:01;7;7;
55754;PMS5003;41674;52.290;-1.474;2023-06-04T10:25:30;8;8;
55754;PMS5003;41674;52.290;-1.474;2023-06-04T10:28:00;5;5;
55754;PMS5003;41674;52.290;-1.474;2023-06-04T10:30:29;7;6;
55754;PMS5003;41674;52.290;-1.474;2023-06-04T10:32:59;7;7;
55754;PMS5003;41674;52.290;-1.474;2023-06-04T10:35:30;7;7;
55754;PMS5003;41674;52.290;-1.474;2023-06-04T10:38:05;10;9;
55754;PMS5003;41674;52.290;-1.474;2023-06-04T10:40:30;5;5;
55754;PMS5003;41674;52.290;-1.474;2023-06-04T10:43:04;7;7;
55754;PMS5003;41674;52.290;-1.474;2023-06-04T10:45:29;5;5;
55754;PMS5003;41674;52.290;-1.474;2023-06-04T10:48:00;10;7;
55754;PMS5003;41674;52.290;-1.474;2023-06-04T10:50:26;7;7;
55754;PMS5003;41674;52.290;-1.474;2023-06-04T10:52:56;8;7;
55754;PMS5003;41674;52.290;-1.474;2023-06-04T10:55:25;6;5;
55754;PMS5003;41674;52.290;-1.474;2023-06-04T10:57:56;6;6;
55754;PMS5003;41674;52.290;-1.474;2023-06-04T11:02:54;8;8;
55754;PMS5003;41674;52.290;-1.474;2023-06-04T11:07:53;10;8;
55754;PMS5003;41674;52.290;-1.474;2023-06-04T11:10:29;6;6;
55754;PMS5003;41674;52.290;-1.474;2023-06-04T11:12:52;6;6;
55754;PMS5003;41674;52.290;-1.474;2023-06-04T11:15:21;5;5;
55754;PMS5003;41674;52.290;-1.474;2023-06-04T11:17:51;6;6;
55754;PMS5003;41674;52.290;-1.474;2023-06-04T11:20:21;9;9;
55754;PMS5003;41674;52.290;-1.474;2023-06-04T11:22:51;8;6;
55754;PMS5003;41674;52.290;-1.474;2023-06-04T11:25:20;7;6;
55754;PMS5003;41674;52.290;-1.474;2023-06-04T11:27:51;7;7;
55754;PMS5003;41674;52.290;-1.474;2023-06-04T11:30:19;7;7;
55754;PMS5003;41674;52.290;-1.474;2023-06-04T11:32:48;6;6;
55754;PMS5003;41674;52.290;-1.474;2023-06-04T11:35:18;7;6;
55754;PMS5003;41674;52.290;-1.474;2023-06-04T11:40:17;11;7;
55754;PMS5003;41674;52.290;-1.474;2023-06-04T11:42:46;8;7;
55754;PMS5003;41674;52.290;-1.474;2023-06-04T11:45:16;6;6;
55754;PMS5003;41674;52.290;-1.474;2023-06-04T11:47:46;8;8;
55754;PMS5003;41674;52.290;-1.474;2023-06-04T11:50:15;8;6;
55754;PMS5003;41674;52.290;-1.474;2023-06-04T11:52:44;6;6;
55754;PMS5003;41674;52.290;-1.474;2023-06-04T11:55:15;7;7;
55754;PMS5003;41674;52.290;-1.474;2023-06-04T11:57:43;7;5;
55754;PMS5003;41674;52.290;-1.474;2023-06-04T12:00:13;6;6;
55754;PMS5003;41674;52.290;-1.474;2023-06-04T12:02:48;7;6;
55754;PMS5003;41674;52.290;-1.474;2023-06-04T12:05:13;6;6;
55754;PMS5003;41674;52.290;-1.474;2023-06-04T12:07:42;8;7;
55754;PMS5003;41674;52.290;-1.474;2023-06-04T12:10:12;9;8;
55754;PMS5003;41674;52.290;-1.474;2023-06-04T12:12:41;8;7;
55754;PMS5003;41674;52.290;-1.474;2023-06-04T12:15:10;10;10;
55754;PMS5003;41674;52.290;-1.474;2023-06-04T12:20:10;9;7;
55754;PMS5003;41674;52.290;-1.474;2023-06-04T12:22:44;6;6;
55754;PMS5003;41674;52.290;-1.474;2023-06-04T12:25:08;7;7;
55754;PMS5003;41674;52.290;-1.474;2023-06-04T12:27:46;7;7;
55754;PMS5003;41674;52.290;-1.474;2023-06-04T12:30:07;8;8;
55754;PMS5003;41674;52.290;-1.474;2023-06-04T12:32:37;9;8;
55754;PMS5003;41674;52.290;-1.474;2023-06-04T12:35:07;9;9;
55754;PMS5003;41674;52.290;-1.474;2023-06-04T12:37:36;7;7;
55754;PMS5003;41674;52.290;-1.474;2023-06-04T12:40:06;9;8;
55754;PMS5003;41674;52.290;-1.474;2023-06-04T12:42:35;11;6;
55754;PMS5003;41674;52.290;-1.474;2023-06-04T12:45:05;7;7;
55754;PMS5003;41674;52.290;-1.474;2023-06-04T12:47:34;9;7;
55754;PMS5003;41674;52.290;-1.474;2023-06-04T12:50:04;8;8;
55754;PMS5003;41674;52.290;-1.474;2023-06-04T12:52:33;8;8;
55754;PMS5003;41674;52.290;-1.474;2023-06-04T12:55:02;7;7;
55754;PMS5003;41674;52.290;-1.474;2023-06-04T12:57:32;8;8;
55754;PMS5003;41674;52.290;-1.474;2023-06-04T13:00:02;8;8;
55754;PMS5003;41674;52.290;-1.474;2023-06-04T13:02:31;6;6;
55754;PMS5003;41674;52.290;-1.474;2023-06-04T13:05:00;7;7;
55754;PMS5003;41674;52.290;-1.474;2023-06-04T13:07:30;8;8;
55754;PMS5003;41674;52.290;-1.474;2023-06-04T13:09:59;8;8;
55754;PMS5003;41674;52.290;-1.474;2023-06-04T13:12:29;6;6;
55754;PMS5003;41674;52.290;-1.474;2023-06-04T13:14:59;5;5;
55754;PMS5003;41674;52.290;-1.474;2023-06-04T13:17:28;5;5;
55754;PMS5003;41674;52.290;-1.474;2023-06-04T13:19:57;7;7;
55754;PMS5003;41674;52.290;-1.474;2023-06-04T13:22:27;8;8;
55754;PMS5003;41674;52.290;-1.474;2023-06-04T13:24:56;6;6;
55754;PMS5003;41674;52.290;-1.474;2023-06-04T13:27:26;8;6;
55754;PMS5003;41674;52.290;-1.474;2023-06-04T13:29:55;5;5;
55754;PMS5003;41674;52.290;-1.474;2023-06-04T13:32:25;8;8;
55754;PMS5003;41674;52.290;-1.474;2023-06-04T13:34:54;6;6;
55754;PMS5003;41674;52.290;-1.474;2023-06-04T13:37:24;6;6;
55754;PMS5003;41674;52.290;-1.474;2023-06-04T13:39:53;6;6;
55754;PMS5003;41674;52.290;-1.474;2023-06-04T13:42:23;7;7;
55754;PMS5003;41674;52.290;-1.474;2023-06-04T13:44:52;8;8;
55754;PMS5003;41674;52.290;-1.474;2023-06-04T13:47:22;6;6;
55754;PMS5003;41674;52.290;-1.474;2023-06-04T13:49:52;6;6;
55754;PMS5003;41674;52.290;-1.474;2023-06-04T13:52:21;8;5;
55754;PMS5003;41674;52.290;-1.474;2023-06-04T13:54:51;7;6;
55754;PMS5003;41674;52.290;-1.474;2023-06-04T13:57:20;5;5;
55754;PMS5003;41674;52.290;-1.474;2023-06-04T13:59:50;6;6;
55754;PMS5003;41674;52.290;-1.474;2023-06-04T14:02:19;7;6;
55754;PMS5003;41674;52.290;-1.474;2023-06-04T14:04:49;7;7;
55754;PMS5003;41674;52.290;-1.474;2023-06-04T14:07:18;5;5;
55754;PMS5003;41674;52.290;-1.474;2023-06-04T14:09:48;6;5;
55754;PMS5003;41674;52.290;-1.474;2023-06-04T14:12:17;7;7;
55754;PMS5003;41674;52.290;-1.474;2023-06-04T14:14:46;5;5;
55754;PMS5003;41674;52.290;-1.474;2023-06-04T14:17:16;7;7;
55754;PMS5003;41674;52.290;-1.474;2023-06-04T14:19:45;7;7;
55754;PMS5003;41674;52.290;-1.474;2023-06-04T14:22:15;7;7;
55754;PMS5003;41674;52.290;-1.474;2023-06-04T14:24:44;7;6;
55754;PMS5003;41674;52.290;-1.474;2023-06-04T14:27:14;7;6;
55754;PMS5003;41674;52.290;-1.474;2023-06-04T14:29:44;6;6;
55754;PMS5003;41674;52.290;-1.474;2023-06-04T14:32:13;6;6;
55754;PMS5003;41674;52.290;-1.474;2023-06-04T14:34:43;5;4;
55754;PMS5003;41674;52.290;-1.474;2023-06-04T14:37:12;6;6;
55754;PMS5003;41674;52.290;-1.474;2023-06-04T14:39:43;6;6;
55754;PMS5003;41674;52.290;-1.474;2023-06-04T14:42:11;6;5;
55754;PMS5003;41674;52.290;-1.474;2023-06-04T14:44:40;6;5;
55754;PMS5003;41674;52.290;-1.474;2023-06-04T14:47:10;7;7;
55754;PMS5003;41674;52.290;-1.474;2023-06-04T14:49:39;6;5;
55754;PMS5003;41674;52.290;-1.474;2023-06-04T14:52:09;6;6;
55754;PMS5003;41674;52.290;-1.474;2023-06-04T14:54:38;7;6;
55754;PMS5003;41674;52.290;-1.474;2023-06-04T14:57:08;7;6;
55754;PMS5003;41674;52.290;-1.474;2023-06-04T14:59:37;7;6;
55754;PMS5003;41674;52.290;-1.474;2023-06-04T15:02:07;5;5;
55754;PMS5003;41674;52.290;-1.474;2023-06-04T15:04:37;6;6;
55754;PMS5003;41674;52.290;-1.474;2023-06-04T15:07:06;6;6;
55754;PMS5003;41674;52.290;-1.474;2023-06-04T15:09:35;5;5;
55754;PMS5003;41674;52.290;-1.474;2023-06-04T15:12:05;4;4;
55754;PMS5003;41674;52.290;-1.474;2023-06-04T15:17:04;3;3;
55754;PMS5003;41674;52.290;-1.474;2023-06-04T15:19:33;4;4;
55754;PMS5003;41674;52.290;-1.474;2023-06-04T15:22:03;6;5;
55754;PMS5003;41674;52.290;-1.474;2023-06-04T15:24:33;5;5;
55754;PMS5003;41674;52.290;-1.474;2023-06-04T15:27:02;7;7;
55754;PMS5003;41674;52.290;-1.474;2023-06-04T15:29:31;3;3;
55754;PMS5003;41674;52.290;-1.474;2023-06-04T15:32:01;4;4;
55754;PMS5003;41674;52.290;-1.474;2023-06-04T15:34:30;5;5;
55754;PMS5003;41674;52.290;-1.474;2023-06-04T15:36:59;4;4;
55754;PMS5003;41674;52.290;-1.474;2023-06-04T15:39:29;6;4;
55754;PMS5003;41674;52.290;-1.474;2023-06-04T15:41:59;6;6;
55754;PMS5003;41674;52.290;-1.474;2023-06-04T15:44:28;5;5;
55754;PMS5003;41674;52.290;-1.474;2023-06-04T15:46:58;5;4;
55754;PMS5003;41674;52.290;-1.474;2023-06-04T15:49:27;5;5;
55754;PMS5003;41674;52.290;-1.474;2023-06-04T15:51:56;4;4;
55754;PMS5003;41674;52.290;-1.474;2023-06-04T15:54:26;6;6;
55754;PMS5003;41674;52.290;-1.474;2023-06-04T15:56:55;5;5;
55754;PMS5003;41674;52.290;-1.474;2023-06-04T15:59:25;5;5;
55754;PMS5003;41674;52.290;-1.474;2023-06-04T16:01:54;4;4;
55754;PMS5003;41674;52.290;-1.474;2023-06-04T16:04:24;7;5;
55754;PMS5003;41674;52.290;-1.474;2023-06-04T16:06:53;7;6;
55754;PMS5003;41674;52.290;-1.474;2023-06-04T16:09:23;5;5;
55754;PMS5003;41674;52.290;-1.474;2023-06-04T16:11:52;6;5;
55754;PMS5003;41674;52.290;-1.474;2023-06-04T16:14:22;4;4;
55754;PMS5003;41674;52.290;-1.474;2023-06-04T16:16:51;6;5;
55754;PMS5003;41674;52.290;-1.474;2023-06-04T16:19:21;5;5;
55754;PMS5003;41674;52.290;-1.474;2023-06-04T16:21:50;4;4;
55754;PMS5003;41674;52.290;-1.474;2023-06-04T16:24:20;6;6;
55754;PMS5003;41674;52.290;-1.474;2023-06-04T16:26:49;5;4;
55754;PMS5003;41674;52.290;-1.474;2023-06-04T16:29:19;7;6;
55754;PMS5003;41674;52.290;-1.474;2023-06-04T16:31:48;4;4;
55754;PMS5003;41674;52.290;-1.474;2023-06-04T16:34:18;5;4;
55754;PMS5003;41674;52.290;-1.474;2023-06-04T16:36:47;4;4;
55754;PMS5003;41674;52.290;-1.474;2023-06-04T16:39:17;6;6;
55754;PMS5003;41674;52.290;-1.474;2023-06-04T16:41:46;5;5;
55754;PMS5003;41674;52.290;-1.474;2023-06-04T16:44:16;7;7;
55754;PMS5003;41674;52.290;-1.474;2023-06-04T16:46:45;6;5;
55754;PMS5003;41674;52.290;-1.474;2023-06-04T16:49:15;5;4;
55754;PMS5003;41674;52.290;-1.474;2023-06-04T16:51:44;6;6;
55754;PMS5003;41674;52.290;-1.474;2023-06-04T16:54:14;6;6;
55754;PMS5003;41674;52.290;-1.474;2023-06-04T16:56:43;7;7;
55754;PMS5003;41674;52.290;-1.474;2023-06-04T16:59:12;6;5;
55754;PMS5003;41674;52.290;-1.474;2023-06-04T17:01:42;8;7;